OIZC

Details ICAO OIZC (ZBR)
Name CHAH BAHAR
Region Iran
Timezone Asia/Tehran (UTC+4.5)
Plans Departing 12
Arriving 14
Stats Elevation 43 ft / 13 m (AMSL)
Location 25.443349° 60.382115°
Runways 2
Magnetic Variation 1.584° E
Sunrise 2017-04-26 01:27:19 UTC / 2017-04-26 05:57:19 Local
Sunset 2017-04-26 14:27:31 UTC / 2017-04-26 18:57:31 Local
Advertisement - Login to hide

Runways

ID Width Length Bearing (true) Bearing (mag) Surface Threshold Offset Overrun Length
09L 150 ft / 46 m 12,496 ft / 3,809 m 90.91° 89.33° Asphalt 0 ft / 0 m 1,181 ft / 360 m
09R 150 ft / 46 m 9,829 ft / 2,996 m 90.93° 89.35° Asphalt 0 ft / 0 m 1,181 ft / 360 m
27L 150 ft / 46 m 9,829 ft / 2,996 m 270.94° 269.36° Asphalt 0 ft / 0 m 1,181 ft / 360 m
27R 150 ft / 46 m 12,496 ft / 3,809 m 270.93° 269.35° Asphalt 0 ft / 0 m 1,181 ft / 360 m

Map

Weather

Temperature
Clouds and Precipitation
Forecast for 2017-04-26 06:00 UTC. Updated an hour ago
Winds

METAR

OIZC 260100Z 00000KT 0800 FG NSC 22/22 Q1006 A2971

TAF

TAF AMD OIZC 260130Z 2600/2706 23004MPS 0800 FG NSC BECMG 2603/2605 4000 BR BECMG 2606/2608 6000 NSC TEMPO 2609/2615 21008MPS 5000 SA BECMG 2620/2622 20004MPS 5000 BR TEMPO 2704/2706 4000 HZ FEW040

Frequencies

Tower 121.70 MHz TWR
Approach 134.10 MHz APP
Tower 125.20 MHz TWR
Warning: Do not use this data for real-world aviation or navigation. No guarantee of current accuracy is given.